Craiova, Romania
Current Conditions -  °F | °C
As of 5:00 AM on Thursday 27 Nov 2014 (Local Time) from LRCV Reporting Station
Overcast Overcast  
Wind Chill: 21°   Ceiling: 2900
Heat Index: 28°   Visibility: 6mi
Dew Point: 23°   Wind: 7mph
Humidity: 80%   Direction: 110°ESE
Pressure: 30.27"   Gusts: NA
Location:  44.33°N, 23.82°E
Report Text: LRCV 270200Z 11006KT 9999 OVC029 M02/M05 Q1025
Loading
Personal Weather Stations






























Interactive Weather Map New forecast layout! Learn more

10-Day Weather Forecast

Advertisements
Track Severe Weather on mobile